Time;durP1;ratioP1;P1;durP2;ratioP2;P2;SDS_P1;SDS_P2;PMS_P1;PMS_P2;Temp;Humidity;BMP_temperature;BMP_pressure;BME280_temperature;BME280_humidity;BME280_pressure;Samples;Min_cycle;Max_cycle;Signal;HPM_P1;HPM_P2
2022/03/29 00:00:38;;;;;;;19.02;16.30;;;;;;;9.14;100.00;101591.66;5225160;28;20053;-83
2022/03/29 00:03:09;;;;;;;34.88;19.08;;;;;;;9.27;100.00;101620.25;5224505;28;20041;-83
2022/03/29 00:05:39;;;;;;;33.00;21.55;;;;;;;8.85;100.00;101556.63;5224486;28;20207;-83
2022/03/29 00:08:10;;;;;;;27.52;17.70;;;;;;;9.08;100.00;101592.56;5223507;28;20022;-84
2022/03/29 00:10:41;;;;;;;21.20;18.63;;;;;;;9.09;100.00;101598.75;5224808;28;20021;-83
2022/03/29 00:13:11;;;;;;;25.60;16.95;;;;;;;9.01;100.00;101593.69;5206557;28;20025;-83
2022/03/29 00:15:42;;;;;;;24.98;14.80;;;;;;;8.82;100.00;101562.44;5224745;28;20053;-83
2022/03/29 00:18:13;;;;;;;21.65;17.20;;;;;;;9.16;100.00;101620.22;5224675;28;20092;-83
2022/03/29 00:20:43;;;;;;;26.48;16.85;;;;;;;9.00;100.00;101600.13;5207851;28;20033;-82
2022/03/29 00:23:14;;;;;;;23.17;16.23;;;;;;;8.85;100.00;101586.25;5226775;28;20080;-83
2022/03/29 00:25:45;;;;;;;21.95;16.08;;;;;;;8.90;100.00;101586.38;5224195;28;20028;-84
2022/03/29 00:28:15;;;;;;;21.58;15.93;;;;;;;8.81;100.00;101572.41;5224596;28;20040;-83
2022/03/29 00:30:46;;;;;;;39.53;17.58;;;;;;;8.85;100.00;101586.25;5224507;28;20036;-84
2022/03/29 00:33:16;;;;;;;30.30;16.13;;;;;;;8.53;100.00;101537.97;5224026;28;20109;-84
2022/03/29 00:35:47;;;;;;;22.35;15.73;;;;;;;8.86;100.00;101599.47;5219726;28;20095;-82
2022/03/29 00:38:18;;;;;;;17.92;15.57;;;;;;;8.82;100.00;101592.06;5223944;28;20045;-83
2022/03/29 00:40:49;;;;;;;22.90;18.48;;;;;;;8.72;100.00;101584.53;5222448;28;20017;-82
2022/03/29 00:43:20;;;;;;;18.60;15.35;;;;;;;8.44;100.00;101547.38;5221443;28;20100;-83
2022/03/29 00:45:51;;;;;;;22.33;15.68;;;;;;;8.65;100.00;101581.94;5202028;28;20032;-84
2022/03/29 00:48:21;;;;;;;16.40;14.13;;;;;;;8.69;100.00;101577.72;5203089;28;20017;-82
2022/03/29 00:50:54;;;;;;;15.90;13.35;;;;;;;8.53;100.00;101551.41;5241517;22;20056;-59
2022/03/29 00:53:25;;;;;;;25.20;17.15;;;;;;;8.64;100.00;101568.69;5221651;28;20029;-59
2022/03/29 00:55:55;;;;;;;19.58;15.45;;;;;;;8.64;100.00;101574.91;5205692;28;20029;-57
2022/03/29 00:58:26;;;;;;;27.30;17.40;;;;;;;8.61;100.00;101561.88;5205567;28;20380;-59
2022/03/29 01:01:01;;;;;;;16.55;14.23;;;;;;;8.56;100.00;101556.34;5205570;28;20104;-59
2022/03/29 01:03:32;;;;;;;27.05;16.90;;;;;;;8.53;100.00;101566.75;5205318;28;20026;-59
2022/03/29 01:06:03;;;;;;;19.50;15.05;;;;;;;8.48;100.00;101556.66;5205306;28;20032;-59
2022/03/29 01:08:35;;;;;;;17.58;15.15;;;;;;;8.44;100.00;101558.97;5205393;28;20029;-58
2022/03/29 01:11:07;;;;;;;22.85;15.02;;;;;;;8.28;100.00;101537.19;5205424;28;20136;-57
2022/03/29 01:13:38;;;;;;;15.98;14.45;;;;;;;8.34;100.00;101552.47;5205030;28;20028;-59
2022/03/29 01:19:00;;;;;;;21.60;15.25;;;;;;;8.28;100.00;101540.69;5206853;28;20072;-59
2022/03/29 01:21:33;;;;;;;18.23;16.40;;;;;;;8.27;100.00;101540.94;5206507;28;20380;-59
2022/03/29 01:24:04;;;;;;;16.48;14.27;;;;;;;8.16;100.00;101517.44;5205017;28;20021;-58
2022/03/29 01:26:35;;;;;;;24.88;16.65;;;;;;;8.10;100.00;101511.91;5205114;28;20128;-59
2022/03/29 01:29:07;;;;;;;21.63;15.80;;;;;;;8.17;100.00;101522.59;5204934;28;20124;-59
2022/03/29 01:31:38;;;;;;;17.10;14.68;;;;;;;8.04;100.00;101507.44;5204939;28;20037;-58
2022/03/29 01:34:10;;;;;;;17.15;14.32;;;;;;;8.04;100.00;101512.00;5203653;28;20068;-59
2022/03/29 01:36:40;;;;;;;20.40;15.75;;;;;;;8.05;100.00;101521.72;5205869;28;20049;-59
2022/03/29 01:39:12;;;;;;;18.48;14.70;;;;;;;8.00;100.00;101521.56;5203930;28;20143;-59
2022/03/29 01:41:43;;;;;;;27.63;15.55;;;;;;;7.95;100.00;101527.59;5205959;28;20033;-59
2022/03/29 01:44:14;;;;;;;21.70;16.05;;;;;;;7.92;100.00;101519.97;5204413;28;20120;-59
2022/03/29 01:46:44;;;;;;;17.73;15.18;;;;;;;7.70;100.00;101495.38;5204906;28;20057;-59
2022/03/29 01:49:16;;;;;;;30.17;14.77;;;;;;;7.83;100.00;101523.16;5203465;28;20050;-59
2022/03/29 01:51:47;;;;;;;23.05;14.30;;;;;;;7.76;100.00;101501.75;5204485;28;20044;-59
2022/03/29 01:54:18;;;;;;;22.33;17.27;;;;;;;7.77;100.00;101503.38;5204285;28;20538;-59
2022/03/29 01:56:48;;;;;;;20.80;15.15;;;;;;;7.77;100.00;101508.75;5221190;28;20406;-59
2022/03/29 01:59:19;;;;;;;23.30;15.88;;;;;;;7.75;100.00;101500.09;5204603;28;20112;-59
2022/03/29 02:01:50;;;;;;;23.60;15.30;;;;;;;7.56;100.00;101464.28;5204470;28;20036;-59
2022/03/29 02:04:20;;;;;;;18.67;16.27;;;;;;;7.75;100.00;101494.72;5203961;28;20053;-58
2022/03/29 02:06:51;;;;;;;16.13;14.35;;;;;;;7.73;100.00;101494.13;5204530;28;20569;-58
2022/03/29 02:09:21;;;;;;;22.73;16.73;;;;;;;7.71;100.00;101488.13;5204284;28;20017;-59
2022/03/29 02:11:51;;;;;;;24.17;16.17;;;;;;;7.71;100.00;101483.56;5204135;28;20061;-59
2022/03/29 02:14:22;;;;;;;18.63;15.23;;;;;;;7.71;100.00;101480.06;5203804;28;20021;-59
2022/03/29 02:16:52;;;;;;;16.85;15.40;;;;;;;7.68;100.00;101475.94;5203866;28;20064;-59
2022/03/29 02:19:23;;;;;;;17.50;15.70;;;;;;;7.68;100.00;101473.25;5203956;28;20530;-59
2022/03/29 02:21:53;;;;;;;26.95;16.65;;;;;;;7.67;100.00;101482.38;5204195;28;20395;-59
2022/03/29 02:24:24;;;;;;;25.10;15.85;;;;;;;7.53;100.00;101448.59;5204050;28;20029;-58
2022/03/29 02:26:54;;;;;;;20.42;17.30;;;;;;;7.69;100.00;101474.91;5205498;28;20030;-57
2022/03/29 02:29:25;;;;;;;22.85;17.70;;;;;;;7.70;100.00;101475.72;5203935;28;20084;-59
2022/03/29 02:31:55;;;;;;;21.50;16.00;;;;;;;7.69;100.00;101469.53;5220480;28;20033;-59
2022/03/29 02:34:25;;;;;;;20.63;18.15;;;;;;;7.69;100.00;101463.34;5204642;28;20025;-59
2022/03/29 02:36:56;;;;;;;17.45;15.63;;;;;;;7.69;100.00;101461.47;5203848;28;20502;-58
2022/03/29 02:39:26;;;;;;;26.38;17.70;;;;;;;7.70;100.00;101459.59;5204657;28;20534;-56
2022/03/29 02:41:57;;;;;;;22.60;19.65;;;;;;;7.68;100.00;101453.63;5205716;28;20022;-55
2022/03/29 02:44:27;;;;;;;20.23;17.98;;;;;;;7.60;100.00;101438.59;5203414;28;20021;-54
2022/03/29 02:46:58;;;;;;;22.77;17.23;;;;;;;7.61;100.00;101434.88;5204645;28;20026;-53
2022/03/29 02:49:28;;;;;;;22.52;17.02;;;;;;;7.67;100.00;101443.91;5204507;28;20022;-54
2022/03/29 02:51:59;;;;;;;20.48;18.13;;;;;;;7.66;100.00;101442.28;5203307;28;20038;-55
2022/03/29 02:54:30;;;;;;;28.50;18.45;;;;;;;7.54;100.00;101417.16;5202624;28;20083;-55
2022/03/29 02:57:00;;;;;;;25.90;17.65;;;;;;;7.65;100.00;101433.38;5203316;28;20059;-55
2022/03/29 02:59:31;;;;;;;18.52;16.65;;;;;;;7.65;100.00;101435.25;5204364;28;20028;-54
2022/03/29 03:02:01;;;;;;;26.50;19.02;;;;;;;7.64;100.00;101434.44;5203271;28;20506;-54
2022/03/29 03:04:33;;;;;;;22.80;18.08;;;;;;;7.61;100.00;101436.72;5202900;28;20033;-56
2022/03/29 03:07:03;;;;;;;21.10;18.52;;;;;;;7.60;100.00;101433.22;5203216;28;20037;-54
2022/03/29 03:09:34;;;;;;;25.02;18.90;;;;;;;7.59;100.00;101430.75;5203123;28;20091;-57
2022/03/29 03:12:04;;;;;;;21.13;18.85;;;;;;;7.56;100.00;101426.66;5203340;28;20022;-56
2022/03/29 03:14:35;;;;;;;27.20;18.92;;;;;;;7.54;100.00;101428.72;5202894;28;20022;-55
2022/03/29 03:17:05;;;;;;;28.73;20.25;;;;;;;7.52;100.00;101424.63;5204282;28;20022;-55
2022/03/29 03:19:36;;;;;;;29.48;21.40;;;;;;;7.49;100.00;101427.78;5203034;28;20080;-54
2022/03/29 03:22:06;;;;;;;21.40;19.42;;;;;;;7.47;100.00;101424.50;5203210;28;20083;-57
2022/03/29 03:24:37;;;;;;;32.55;22.92;;;;;;;7.43;100.00;101422.25;5202839;28;20483;-56
2022/03/29 03:27:07;;;;;;;21.45;19.48;;;;;;;7.40;100.00;101428.06;5203180;28;20403;-54
2022/03/29 03:29:38;;;;;;;33.60;23.65;;;;;;;7.39;100.00;101436.34;5203179;28;20116;-55
2022/03/29 03:32:08;;;;;;;23.23;21.13;;;;;;;7.36;100.00;101428.72;5203313;28;20029;-54
2022/03/29 03:34:40;;;;;;;23.08;19.08;;;;;;;7.33;100.00;101435.34;5202670;28;20133;-57
2022/03/29 03:37:10;;;;;;;28.45;20.95;;;;;;;7.06;100.00;101385.59;5202996;28;20080;-55
2022/03/29 03:39:41;;;;;;;25.23;20.23;;;;;;;7.29;100.00;101411.81;5203051;28;20411;-55
2022/03/29 03:42:11;;;;;;;24.10;20.25;;;;;;;7.36;100.00;101415.28;5219528;28;20036;-54
2022/03/29 03:44:42;;;;;;;31.83;23.60;;;;;;;7.37;100.00;101415.06;5202653;28;20033;-57
2022/03/29 03:47:12;;;;;;;31.52;23.90;;;;;;;7.39;100.00;101412.16;5202895;28;20075;-54
2022/03/29 03:49:42;;;;;;;27.75;21.02;;;;;;;7.38;100.00;101403.28;5202762;28;20028;-54
2022/03/29 03:52:13;;;;;;;24.90;22.60;;;;;;;7.42;100.00;101403.66;5202917;28;20042;-56
2022/03/29 03:54:44;;;;;;;23.65;20.98;;;;;;;7.43;100.00;101400.75;5202417;28;20022;-54
2022/03/29 03:57:14;;;;;;;29.55;26.30;;;;;;;7.42;100.00;101398.28;5203028;28;20035;-57
2022/03/29 03:59:48;;;;;;;25.08;21.73;;;;;;;7.40;100.00;101395.00;5202902;28;20072;-55
2022/03/29 04:02:19;;;;;;;32.33;23.02;;;;;;;7.41;100.00;101397.47;5202799;28;20113;-56
2022/03/29 04:04:50;;;;;;;25.75;22.17;;;;;;;7.39;100.00;101393.34;5202794;28;20521;-54
2022/03/29 04:07:20;;;;;;;46.63;27.15;;;;;;;7.39;100.00;101393.34;5202735;28;20029;-54
2022/03/29 04:09:50;;;;;;;25.50;22.92;;;;;;;7.38;100.00;101389.84;5204000;28;20029;-54
2022/03/29 04:12:21;;;;;;;27.63;24.83;;;;;;;7.38;100.00;101389.00;5204985;28;20029;-54
2022/03/29 04:14:52;;;;;;;30.33;25.88;;;;;;;7.36;100.00;101383.03;5206307;28;20029;-55
2022/03/29 04:17:22;;;;;;;26.17;22.63;;;;;;;7.29;100.00;101372.34;5207741;28;20052;-55
2022/03/29 04:19:54;;;;;;;30.08;24.50;;;;;;;7.34;100.00;101372.50;5207649;28;20436;-54
2022/03/29 04:22:25;;;;;;;28.27;25.25;;;;;;;7.35;100.00;101376.84;5206350;28;20048;-54
2022/03/29 04:24:55;;;;;;;28.95;26.13;;;;;;;7.22;100.00;101352.00;5206192;28;20017;-57
2022/03/29 04:27:26;;;;;;;28.13;25.60;;;;;;;7.26;100.00;101364.72;5206383;28;20021;-58
2022/03/29 04:29:56;;;;;;;29.30;23.25;;;;;;;7.21;100.00;101353.03;5207521;28;20097;-57
2022/03/29 04:32:28;;;;;;;28.45;24.63;;;;;;;7.10;100.00;101319.66;5206055;28;20057;-58
2022/03/29 04:34:58;;;;;;;31.95;27.52;;;;;;;7.27;100.00;101352.94;5206004;28;20022;-56
2022/03/29 04:37:28;;;;;;;28.45;24.67;;;;;;;7.25;100.00;101346.16;5206166;28;20395;-56
2022/03/29 04:39:59;;;;;;;29.70;26.52;;;;;;;7.23;100.00;101346.38;5206120;28;20017;-55
2022/03/29 04:42:29;;;;;;;29.60;26.33;;;;;;;7.23;100.00;101346.38;5205973;28;20444;-55
2022/03/29 04:45:00;;;;;;;31.52;27.17;;;;;;;6.96;100.00;101310.88;5205626;28;20021;-55
2022/03/29 04:47:30;;;;;;;35.60;27.58;;;;;;;7.20;100.00;101346.84;5205765;28;20026;-55
2022/03/29 04:50:00;;;;;;;30.45;27.10;;;;;;;7.21;100.00;101344.97;5207303;28;20402;-56
2022/03/29 04:52:31;;;;;;;31.13;26.00;;;;;;;7.18;100.00;101338.19;5205907;28;20040;-55
2022/03/29 04:55:02;;;;;;;30.42;27.40;;;;;;;7.18;100.00;101345.41;5205286;28;20029;-57
2022/03/29 04:57:32;;;;;;;28.45;25.67;;;;;;;7.18;100.00;101338.19;5205431;28;20025;-54
2022/03/29 05:00:04;;;;;;;43.05;27.27;;;;;;;7.17;100.00;101336.53;5205386;28;20505;-57
2022/03/29 05:02:35;;;;;;;29.77;26.48;;;;;;;7.17;100.00;101325.78;5205148;28;20024;-56
2022/03/29 05:05:07;;;;;;;28.10;25.30;;;;;;;7.15;100.00;101317.13;5207517;28;20459;-58
2022/03/29 05:07:37;;;;;;;32.55;27.63;;;;;;;7.02;100.00;101293.09;5224308;28;20025;-56
2022/03/29 05:10:09;;;;;;;32.05;28.58;;;;;;;7.13;100.00;101311.16;5207642;28;20504;-56
2022/03/29 05:12:44;;;;;;;31.40;28.30;;;;;;;7.14;100.00;101303.91;5208661;28;20049;-56
2022/03/29 05:15:18;;;;;;;30.75;27.35;;;;;;;7.10;100.00;101290.94;5208573;28;20020;-55
2022/03/29 05:17:49;;;;;;;41.35;29.23;;;;;;;7.09;100.00;101281.25;5225571;28;20021;-56
2022/03/29 05:20:19;;;;;;;41.03;25.40;;;;;;;7.09;100.00;101277.72;5208486;28;20043;-56
2022/03/29 05:22:55;;;;;;;35.10;26.38;;;;;;;7.08;100.00;101276.09;5207434;28;20479;-55
2022/03/29 05:25:26;;;;;;;33.80;28.50;;;;;;;6.91;100.00;101243.63;5198339;28;20398;-54
2022/03/29 05:27:57;;;;;;;33.38;28.83;;;;;;;7.00;100.00;101265.63;5214888;28;20024;-57
2022/03/29 05:30:28;;;;;;;38.22;27.02;;;;;;;7.02;100.00;101272.41;5210004;28;20083;-56
2022/03/29 05:33:00;;;;;;;28.98;26.00;;;;;;;7.00;100.00;101271.00;5188794;28;20491;-55
2022/03/29 05:35:31;;;;;;;32.55;29.05;;;;;;;7.00;100.00;101281.75;5204694;28;20064;-55
2022/03/29 05:38:03;;;;;;;38.55;29.15;;;;;;;7.02;100.00;101282.34;5208397;28;20025;-57
2022/03/29 05:40:34;;;;;;;33.05;28.27;;;;;;;6.84;100.00;101266.22;5208082;28;20491;-57
2022/03/29 05:43:13;;;;;;;56.17;28.75;;;;;;;7.03;100.00;101308.16;5208072;28;20080;-56
2022/03/29 05:48:51;;;;;;;34.88;29.45;;;;;;;6.91;100.00;101293.81;5205791;28;20033;-55
2022/03/29 05:48:52;;;;;;;32.03;28.55;;;;;;;7.09;100.00;101318.00;5228659;28;20391;-57
2022/03/29 05:51:24;;;;;;;32.85;29.50;;;;;;;7.10;100.00;101315.09;5208774;28;20106;-59
2022/03/29 05:53:57;;;;;;;34.03;30.38;;;;;;;7.10;100.00;101306.22;5210027;28;20103;-59
2022/03/29 05:56:27;;;;;;;34.25;29.17;;;;;;;7.13;100.00;101316.53;5208045;28;20479;-57
2022/03/29 05:58:58;;;;;;;40.95;27.98;;;;;;;7.15;100.00;101327.06;5207087;28;20074;-57
2022/03/29 06:01:28;;;;;;;35.30;31.73;;;;;;;7.16;100.00;101323.31;5207742;28;20025;-56
2022/03/29 06:03:59;;;;;;;34.97;31.27;;;;;;;7.18;100.00;101324.75;5207446;28;20402;-54
2022/03/29 06:06:29;;;;;;;30.00;26.90;;;;;;;7.18;100.00;101324.75;5208000;28;20048;-55
2022/03/29 06:09:00;;;;;;;33.95;30.10;;;;;;;7.04;100.00;101304.41;5207436;28;20123;-57
2022/03/29 06:11:30;;;;;;;39.15;28.90;;;;;;;7.17;100.00;101325.78;5191465;28;20100;-56
2022/03/29 06:14:02;;;;;;;34.03;30.40;;;;;;;7.17;100.00;101322.28;5186097;28;20439;-56
2022/03/29 06:16:43;;;;;;;34.30;30.63;;;;;;;7.18;100.00;101324.75;5185245;28;20029;-56
2022/03/29 06:19:14;;;;;;;36.92;29.90;;;;;;;7.22;100.00;101328.59;5187261;28;20049;-57
2022/03/29 06:21:45;;;;;;;32.17;28.80;;;;;;;7.22;100.00;101327.81;5188019;28;20028;-57
2022/03/29 06:24:15;;;;;;;33.92;30.58;;;;;;;7.20;100.00;101325.34;5187737;28;20464;-57
2022/03/29 06:26:45;;;;;;;31.05;24.83;;;;;;;7.20;100.00;101325.34;5188019;28;20025;-57
2022/03/29 06:29:16;;;;;;;31.63;28.73;;;;;;;7.22;100.00;101322.44;5187607;28;20029;-56
2022/03/29 06:31:48;;;;;;;32.78;29.58;;;;;;;7.26;100.00;101329.81;5187868;28;20507;-55
2022/03/29 06:34:18;;;;;;;32.60;29.23;;;;;;;7.26;100.00;101327.13;5187191;28;20040;-56
2022/03/29 06:36:49;;;;;;;35.58;31.90;;;;;;;7.29;100.00;101325.84;5205405;28;20029;-55
2022/03/29 06:39:19;;;;;;;35.78;30.17;;;;;;;7.31;100.00;101321.09;5187399;28;20053;-58
2022/03/29 06:41:50;;;;;;;33.95;28.85;;;;;;;7.33;100.00;101319.00;5187128;28;20037;-57
2022/03/29 06:44:20;;;;;;;35.33;31.58;;;;;;;7.29;100.00;101313.25;5186835;28;20021;-58
2022/03/29 06:50:18;;;;;;;33.80;30.30;;;;;;;7.29;100.00;101296.31;5213581;23;20126;-58
2022/03/29 06:52:49;;;;;;;35.28;31.55;;;;;;;7.47;100.00;101311.63;5175654;28;20026;-58
2022/03/29 06:55:19;;;;;;;34.30;30.98;;;;;;;7.50;100.00;101313.88;5174492;28;20026;-59
2022/03/29 06:57:50;;;;;;;37.47;31.88;;;;;;;7.60;100.00;101314.13;5187737;28;20083;-58
2022/03/29 07:00:20;;;;;;;34.20;30.88;;;;;;;7.65;100.00;101307.06;5187993;28;20037;-59
2022/03/29 07:02:51;;;;;;;35.33;31.33;;;;;;;7.71;100.00;101305.34;5188081;28;20518;-59
2022/03/29 07:05:21;;;;;;;32.30;29.05;;;;;;;7.72;100.00;101313.19;5204195;28;20116;-60
2022/03/29 07:07:51;;;;;;;34.92;31.20;;;;;;;7.78;100.00;101306.91;5187972;28;20021;-59
2022/03/29 07:13:11;;;;;;;32.50;29.13;;;;;;;7.83;100.00;101283.84;5204993;28;20438;-59
2022/03/29 07:15:41;;;;;;;33.85;30.17;;;;;;;8.05;100.00;101315.44;5185095;28;20026;-60
2022/03/29 07:18:12;;;;;;;39.08;34.80;;;;;;;8.11;100.00;101314.50;5203872;28;20064;-59
2022/03/29 07:20:43;;;;;;;38.70;30.17;;;;;;;8.18;100.00;101313.59;5188126;28;20025;-59
2022/03/29 07:23:13;;;;;;;34.67;30.90;;;;;;;8.14;100.00;101308.66;5187920;28;20024;-59
2022/03/29 07:25:44;;;;;;;34.60;30.10;;;;;;;8.25;100.00;101314.31;5187518;28;20048;-58
2022/03/29 07:28:15;;;;;;;39.13;31.05;;;;;;;8.33;100.00;101311.34;5187841;28;20021;-60
2022/03/29 07:30:46;;;;;;;42.42;35.42;;;;;;;8.37;100.00;101301.75;5187621;28;20037;-59
2022/03/29 07:33:17;;;;;;;34.83;31.25;;;;;;;8.36;100.00;101300.94;5188011;28;20424;-59
2022/03/29 07:35:48;;;;;;;35.03;31.30;;;;;;;8.42;100.00;101307.25;5187582;28;20509;-59
2022/03/29 07:38:19;;;;;;;38.47;31.48;;;;;;;8.40;100.00;101298.59;5187594;28;20104;-59
2022/03/29 07:40:49;;;;;;;41.13;35.38;;;;;;;8.48;100.00;101306.31;5187599;28;20030;-58
2022/03/29 07:43:20;;;;;;;34.03;30.42;;;;;;;8.49;100.00;101307.16;5187530;28;20083;-59
2022/03/29 07:45:50;;;;;;;37.17;31.55;;;;;;;8.52;100.00;101307.50;5187751;28;20033;-58
2022/03/29 07:48:22;;;;;;;39.83;35.85;;;;;;;8.60;100.00;101303.66;5191818;28;20090;-58
2022/03/29 07:50:53;;;;;;;32.80;29.67;;;;;;;8.58;100.00;101282.38;5207939;28;20515;-59
2022/03/29 07:53:25;;;;;;;34.13;31.05;;;;;;;8.81;100.00;101300.41;5191522;28;20067;-58
2022/03/29 07:55:55;;;;;;;35.47;32.05;;;;;;;8.82;100.00;101306.59;5191117;28;20040;-59
2022/03/29 07:58:26;;;;;;;37.50;33.75;;;;;;;8.83;100.00;101292.09;5190726;28;20029;-57
2022/03/29 08:00:56;;;;;;;36.30;31.45;;;;;;;8.90;100.00;101299.00;5191018;28;20079;-58
2022/03/29 08:03:32;;;;;;;36.58;32.75;;;;;;;8.95;100.00;101298.31;5191023;28;20029;-58
2022/03/29 08:06:03;;;;;;;36.15;32.38;;;;;;;9.04;100.00;101294.19;5191465;28;20021;-59
2022/03/29 08:08:34;;;;;;;40.83;36.33;;;;;;;9.10;100.00;101287.88;5191285;28;20029;-58
2022/03/29 08:11:05;;;;;;;34.83;31.27;;;;;;;9.21;100.00;101291.63;5191582;28;20115;-59
2022/03/29 08:13:35;;;;;;;33.85;30.52;;;;;;;9.18;100.00;101295.59;5191277;28;20060;-59
2022/03/29 08:16:06;;;;;;;43.95;32.97;;;;;;;9.24;100.00;101293.84;5191198;28;20025;-59
2022/03/29 08:18:38;;;;;;;41.55;36.63;;;;;;;9.41;100.00;101289.34;5191106;28;20022;-58
2022/03/29 08:23:59;;;;;;;37.08;33.40;;;;;;;9.34;100.00;101273.28;5208678;28;20060;-64
2022/03/29 08:26:30;;;;;;;38.58;34.13;;;;;;;9.36;100.00;101278.44;5190883;28;20022;-59
2022/03/29 08:29:00;;;;;;;34.70;31.23;;;;;;;9.37;100.00;101270.13;5190588;28;20017;-58
2022/03/29 08:31:31;;;;;;;43.72;36.15;;;;;;;9.50;100.00;101270.94;5190804;28;20029;-59
2022/03/29 08:34:02;;;;;;;46.92;36.13;;;;;;;9.52;100.00;101268.81;5190405;28;20402;-59
2022/03/29 08:36:33;;;;;;;38.17;33.97;;;;;;;9.75;100.00;101280.34;5190914;28;20037;-59
2022/03/29 08:39:05;;;;;;;38.55;34.63;;;;;;;9.76;100.00;101279.28;5190757;28;20127;-58
2022/03/29 08:41:39;;;;;;;41.30;37.03;;;;;;;9.83;100.00;101271.84;5178339;28;20029;-59
2022/03/29 08:44:10;;;;;;;38.67;34.83;;;;;;;9.88;100.00;101268.44;5169170;28;20026;-60
2022/03/29 08:46:42;;;;;;;44.85;33.63;;;;;;;10.04;100.00;101264.97;5170133;28;20058;-59
2022/03/29 08:49:14;;;;;;;39.17;34.92;;;;;;;10.14;100.00;101262.44;5169919;28;20025;-59
2022/03/29 08:51:45;;;;;;;38.58;34.67;;;;;;;10.17;100.00;101274.63;5169977;28;20065;-59
2022/03/29 08:54:16;;;;;;;42.22;34.03;;;;;;;10.20;100.00;101270.66;5169676;28;20518;-61
2022/03/29 08:56:46;;;;;;;39.40;34.38;;;;;;;10.24;100.00;101271.81;5187212;28;20112;-59
2022/03/29 08:59:18;;;;;;;40.40;36.33;;;;;;;10.19;100.00;101263.59;5169467;28;20017;-58
2022/03/29 09:01:48;;;;;;;37.03;33.08;;;;;;;10.34;100.00;101272.00;5169743;28;20108;-58
2022/03/29 09:04:24;;;;;;;36.72;32.97;;;;;;;10.47;100.00;101266.25;5185692;28;20021;-57
2022/03/29 09:06:58;;;;;;;35.58;31.88;;;;;;;10.47;100.00;101269.78;5169815;28;20037;-58
2022/03/29 09:09:30;;;;;;;35.80;32.10;;;;;;;10.55;100.00;101271.25;5161884;28;20076;-58
2022/03/29 09:12:13;;;;;;;34.95;31.42;;;;;;;10.63;100.00;101259.22;5186092;28;20038;-59
2022/03/29 09:14:59;;;;;;;50.05;37.40;;;;;;;10.82;100.00;101255.19;5185514;28;20054;-59
2022/03/29 09:17:41;;;;;;;33.83;30.67;;;;;;;11.13;100.00;101253.75;5169487;28;20021;-58
2022/03/29 09:20:14;;;;;;;39.63;35.53;;;;;;;11.15;100.00;101257.84;5169564;28;20076;-58
2022/03/29 09:22:53;;;;;;;37.83;33.97;;;;;;;11.30;100.00;101246.38;5169417;28;20026;-58
2022/03/29 09:25:46;;;;;;;36.83;33.20;;;;;;;11.16;100.00;101251.34;5169028;28;20120;-58
2022/03/29 09:28:21;;;;;;;33.85;30.65;;;;;;;11.34;100.00;101249.41;5169471;28;20421;-58
2022/03/29 09:30:53;;;;;;;39.28;35.00;;;;;;;11.44;100.00;101254.94;5185793;28;20392;-58
2022/03/29 09:33:32;;;;;;;34.00;30.45;;;;;;;11.50;100.00;101248.53;5168737;28;20025;-59
2022/03/29 09:36:10;;;;;;;35.70;31.88;;;;;;;11.74;100.00;101244.47;5169076;28;20119;-58
2022/03/29 09:38:43;;;;;;;36.80;32.97;;;;;;;11.88;100.00;101241.38;5168960;28;20523;-59
2022/03/29 09:41:32;;;;;;;35.00;28.75;;;;;;;11.90;100.00;101242.78;5169025;28;20407;-59
2022/03/29 09:44:08;;;;;;;39.28;30.60;;;;;;;11.87;100.00;101232.44;5168625;28;20443;-59
2022/03/29 09:46:56;;;;;;;36.58;33.00;;;;;;;12.05;100.00;101218.56;5169245;28;20036;-59
2022/03/29 09:49:27;;;;;;;38.05;34.00;;;;;;;12.30;100.00;101230.69;5185190;28;20447;-61
2022/03/29 09:52:25;;;;;;;36.88;33.33;;;;;;;12.50;100.00;101214.59;5168969;28;20542;-59
2022/03/29 09:55:21;;;;;;;44.35;32.97;;;;;;;12.61;100.00;101216.31;5166619;28;20033;-58
2022/03/29 09:57:57;;;;;;;37.28;32.38;;;;;;;12.42;100.00;101202.34;5182538;28;20064;-59
2022/03/29 10:00:28;;;;;;;34.42;31.02;;;;;;;12.66;100.00;101216.34;5168099;28;20034;-59
2022/03/29 10:02:59;;;;;;;37.03;33.22;;;;;;;12.78;100.00;101216.94;5168599;28;20025;-59
2022/03/29 10:05:31;;;;;;;37.15;33.08;;;;;;;13.02;100.00;101201.06;5168421;28;20030;-59
2022/03/29 10:10:53;;;;;;;36.03;28.65;;;;;;;13.28;100.00;101174.13;5185931;28;20417;-59
2022/03/29 10:13:24;;;;;;;34.95;31.17;;;;;;;13.56;100.00;101187.22;5168151;28;20041;-59
2022/03/29 10:15:55;;;;;;;33.40;28.80;;;;;;;13.59;100.00;101197.53;5168827;28;20033;-59
2022/03/29 10:18:27;;;;;;;32.40;29.23;;;;;;;13.59;100.00;101188.56;5168630;28;20472;-59
2022/03/29 10:21:00;;;;;;;33.92;30.50;;;;;;;13.81;100.00;101191.88;5168605;28;20034;-59
2022/03/29 10:23:32;;;;;;;32.97;29.45;;;;;;;13.81;100.00;101192.69;5167987;28;20141;-61
2022/03/29 10:26:04;;;;;;;35.20;28.52;;;;;;;13.75;100.00;101192.94;5168194;28;20026;-59
2022/03/29 10:28:35;;;;;;;32.38;29.17;;;;;;;13.85;100.00;101199.22;5168373;28;20109;-60
2022/03/29 10:31:26;;;;;;;41.40;32.08;;;;;;;13.74;100.00;101196.75;5168365;28;20647;-60
2022/03/29 10:34:18;;;;;;;38.50;31.55;;;;;;;13.82;100.00;101191.63;5167756;28;20036;-60
2022/03/29 10:37:07;;;;;;;35.67;31.85;;;;;;;14.05;100.00;101193.00;5168117;28;20513;-60
2022/03/29 10:39:47;;;;;;;32.67;29.42;;;;;;;14.33;100.00;101183.47;5184363;28;20129;-61
2022/03/29 10:42:36;;;;;;;35.25;31.65;;;;;;;14.71;100.00;101179.38;5167946;28;20030;-62
2022/03/29 10:45:16;;;;;;;34.10;30.40;;;;;;;15.06;100.00;101178.44;5167854;28;20403;-60
2022/03/29 10:48:06;;;;;;;31.58;27.58;;;;;;;14.59;100.00;101173.41;5184139;28;20034;-63
2022/03/29 10:50:57;;;;;;;33.58;29.70;;;;;;;14.54;100.00;101170.69;5167810;28;20037;-59
2022/03/29 10:53:45;;;;;;;33.28;30.05;;;;;;;14.58;100.00;101165.53;5184006;28;20041;-60
2022/03/29 10:56:15;;;;;;;32.47;29.15;;;;;;;14.76;100.00;101165.75;5167969;28;20025;-60
2022/03/29 10:59:01;;;;;;;32.58;28.48;;;;;;;14.39;100.00;101162.56;5168075;28;20448;-60
2022/03/29 11:01:33;;;;;;;33.38;29.80;;;;;;;13.95;100.00;101159.56;5168144;28;20036;-60
2022/03/29 11:04:17;;;;;;;37.35;30.65;;;;;;;14.16;100.00;101147.63;5167419;28;20040;-59
2022/03/29 11:07:06;;;;;;;33.60;30.23;;;;;;;14.27;100.00;101145.72;5167823;28;20029;-60
2022/03/29 11:09:40;;;;;;;32.22;29.00;;;;;;;14.23;100.00;101144.63;5167731;28;20515;-60
2022/03/29 11:12:45;;;;;;;35.22;31.73;;;;;;;13.86;100.00;101145.72;5167855;28;20025;-61
2022/03/29 11:15:42;;;;;;;39.85;34.33;;;;;;;13.73;100.00;101136.22;5146335;28;20507;-64
2022/03/29 11:18:31;;;;;;;37.30;30.27;;;;;;;13.83;100.00;101136.25;5165676;28;20449;-60
2022/03/29 11:21:03;;;;;;;33.70;30.27;;;;;;;13.76;100.00;101134.88;5170946;28;20030;-60
2022/03/29 11:23:39;;;;;;;35.00;31.23;;;;;;;13.67;100.00;101131.88;5174031;28;20029;-60
2022/03/29 11:26:14;;;;;;;39.33;30.50;;;;;;;13.73;100.00;101133.50;5174037;28;20037;-60
2022/03/29 11:28:50;;;;;;;39.10;35.22;;;;;;;13.93;100.00;101129.97;5190688;28;20491;-60
2022/03/29 11:31:23;;;;;;;38.35;32.60;;;;;;;13.79;100.00;101132.44;5174097;28;20510;-59
2022/03/29 11:33:57;;;;;;;35.67;32.08;;;;;;;13.85;100.00;101125.13;5174172;28;20179;-60
2022/03/29 11:36:28;;;;;;;38.58;32.40;;;;;;;13.98;100.00;101121.03;5190634;28;20101;-59
2022/03/29 11:38:59;;;;;;;38.28;33.33;;;;;;;14.17;100.00;101120.19;5174089;28;20391;-60
2022/03/29 11:41:32;;;;;;;37.95;33.70;;;;;;;14.11;100.00;101121.31;5174278;28;20176;-60
2022/03/29 11:44:06;;;;;;;40.50;31.08;;;;;;;14.11;100.00;101105.00;5174077;28;20399;-60
2022/03/29 11:46:49;;;;;;;36.22;30.20;;;;;;;14.52;100.00;101121.25;5174206;28;20040;-59